Time;durP1;ratioP1;P1;durP2;ratioP2;P2;SDS_P1;SDS_P2;PMS_P1;PMS_P2;Temp;Humidity;BMP_temperature;BMP_pressure;BME280_temperature;BME280_humidity;BME280_pressure;Samples;Min_cycle;Max_cycle;Signal;HPM_P1;HPM_P2
2023/04/30 00:01:05;;;;;;;6.07;5.47;;;14.70;99.90;;;;;;5036672;28;20671;-70
2023/04/30 00:03:30;;;;;;;6.17;5.57;;;14.70;99.90;;;;;;5036433;28;20185;-71
2023/04/30 00:05:56;;;;;;;6.10;5.50;;;14.80;99.90;;;;;;5036492;28;20182;-71
2023/04/30 00:08:21;;;;;;;6.97;6.30;;;14.80;99.90;;;;;;5036544;28;20222;-71
2023/04/30 00:10:47;;;;;;;7.17;6.10;;;14.80;99.90;;;;;;5036442;28;20172;-70
2023/04/30 00:13:13;;;;;;;8.97;6.27;;;14.70;99.90;;;;;;5036262;28;20175;-70
2023/04/30 00:15:39;;;;;;;6.77;5.60;;;14.60;99.90;;;;;;5035064;28;20642;-70
2023/04/30 00:18:05;;;;;;;9.10;6.67;;;14.50;99.90;;;;;;5036318;28;20174;-71
2023/04/30 00:20:33;;;;;;;6.80;5.90;;;14.50;99.90;;;;;;5036219;28;20409;-71
2023/04/30 00:22:58;;;;;;;6.00;5.40;;;14.60;99.90;;;;;;5036211;28;20446;-71
2023/04/30 00:25:24;;;;;;;7.83;5.50;;;14.70;99.90;;;;;;5035741;28;20510;-70
2023/04/30 00:27:50;;;;;;;6.13;5.63;;;14.70;99.90;;;;;;5036149;28;20199;-71
2023/04/30 00:30:15;;;;;;;7.13;6.53;;;14.80;99.90;;;;;;5036538;28;20243;-70
2023/04/30 00:32:41;;;;;;;6.67;6.07;;;14.60;99.90;;;;;;5035975;28;20544;-70
2023/04/30 00:35:07;;;;;;;6.30;5.70;;;14.60;99.90;;;;;;5035909;28;20193;-71
2023/04/30 00:37:32;;;;;;;6.77;6.17;;;14.70;99.90;;;;;;5035785;28;20171;-71
2023/04/30 00:39:58;;;;;;;6.27;5.67;;;14.70;99.90;;;;;;5035681;28;20177;-71
2023/04/30 00:42:24;;;;;;;7.10;6.40;;;14.70;99.90;;;;;;5035984;28;20305;-71
2023/04/30 00:44:49;;;;;;;7.03;6.43;;;14.40;99.90;;;;;;5059249;23;20252;-74
2023/04/30 00:47:15;;;;;;;6.77;6.13;;;14.50;99.90;;;;;;5056083;28;20206;-73
2023/04/30 00:49:41;;;;;;;6.97;6.27;;;14.60;99.90;;;;;;5056949;28;20592;-73
2023/04/30 00:52:06;;;;;;;6.70;5.70;;;14.50;99.90;;;;;;5056085;28;20160;-72
2023/04/30 00:54:32;;;;;;;6.27;5.77;;;14.30;99.90;;;;;;5042674;28;20217;-75
2023/04/30 00:56:58;;;;;;;7.27;6.57;;;14.30;99.90;;;;;;5035997;28;20636;-74
2023/04/30 00:59:24;;;;;;;8.10;7.30;;;14.20;99.90;;;;;;5035279;28;20177;-74
2023/04/30 01:01:49;;;;;;;7.50;6.70;;;14.00;99.90;;;;;;5051400;28;20195;-74
2023/04/30 01:04:15;;;;;;;7.30;6.60;;;14.00;99.90;;;;;;5053482;28;20247;-74
2023/04/30 01:06:42;;;;;;;7.50;6.83;;;14.00;99.90;;;;;;5055750;28;20187;-73
2023/04/30 01:09:09;;;;;;;7.20;6.50;;;14.20;99.90;;;;;;5054227;28;20543;-73
2023/04/30 01:12:05;;;;;;;7.23;6.53;;;14.30;99.90;;;;;;5050752;28;20420;-73
2023/04/30 01:14:51;;;;;;;7.30;6.60;;;13.90;99.90;;;;;;5055327;28;20506;-74
2023/04/30 01:18:12;;;;;;;8.90;6.50;;;13.90;99.90;;;;;;5056119;28;20392;-74
2023/04/30 01:20:47;;;;;;;7.73;6.93;;;13.90;99.90;;;;;;4993754;28;20422;-74
2023/04/30 01:23:31;;;;;;;6.67;6.07;;;13.80;99.90;;;;;;5055529;28;20439;-74
2023/04/30 01:26:14;;;;;;;6.87;6.20;;;14.00;99.90;;;;;;5055567;28;20983;-74
2023/04/30 01:28:45;;;;;;;7.70;7.00;;;14.20;99.90;;;;;;5055716;28;20430;-74
2023/04/30 01:31:15;;;;;;;7.67;6.97;;;14.20;99.90;;;;;;5055312;28;20410;-74
2023/04/30 01:33:41;;;;;;;9.60;7.90;;;14.00;99.90;;;;;;5055428;28;20842;-73
2023/04/30 01:36:27;;;;;;;7.97;7.17;;;14.00;99.90;;;;;;5055189;28;20486;-74
2023/04/30 01:38:55;;;;;;;9.13;8.23;;;13.70;99.90;;;;;;5053702;28;20176;-74
2023/04/30 01:41:35;;;;;;;8.43;7.63;;;13.60;99.90;;;;;;5055211;28;20408;-73
2023/04/30 01:44:42;;;;;;;9.17;8.27;;;13.50;99.90;;;;;;5055386;28;20575;-73
2023/04/30 01:47:23;;;;;;;9.70;8.70;;;13.70;99.90;;;;;;5070160;28;20436;-73
2023/04/30 01:50:13;;;;;;;9.70;8.40;;;13.70;99.90;;;;;;5055467;28;20386;-72
2023/04/30 01:52:41;;;;;;;9.60;8.60;;;13.80;99.90;;;;;;5055188;28;20397;-74
2023/04/30 01:55:12;;;;;;;10.00;8.40;;;13.90;99.90;;;;;;5069842;28;20434;-72
2023/04/30 01:57:43;;;;;;;8.30;7.50;;;14.00;99.90;;;;;;5055706;28;20388;-73
2023/04/30 02:00:10;;;;;;;11.60;9.50;;;13.70;99.90;;;;;;5055325;28;20386;-74
2023/04/30 02:02:35;;;;;;;11.30;8.20;;;13.80;99.90;;;;;;5054562;28;20413;-74
2023/04/30 02:05:01;;;;;;;10.90;9.80;;;13.70;99.90;;;;;;5054684;28;20468;-74
2023/04/30 02:07:40;;;;;;;11.33;10.23;;;13.50;99.90;;;;;;5054475;28;20216;-74
2023/04/30 02:10:07;;;;;;;11.10;9.90;;;13.20;99.90;;;;;;5053036;28;20624;-73
2023/04/30 02:12:32;;;;;;;10.50;9.50;;;13.10;99.90;;;;;;5054890;28;20774;-74
2023/04/30 02:14:58;;;;;;;10.53;9.50;;;13.30;99.90;;;;;;5054733;28;20404;-73
2023/04/30 02:17:24;;;;;;;14.53;9.57;;;13.40;99.90;;;;;;5053659;28;20639;-74
2023/04/30 02:19:49;;;;;;;12.00;10.43;;;13.60;99.90;;;;;;5069797;28;20205;-74
2023/04/30 02:22:15;;;;;;;10.57;9.53;;;13.70;99.90;;;;;;5054398;28;20222;-74
2023/04/30 02:24:40;;;;;;;10.87;9.77;;;13.60;99.90;;;;;;5053931;28;20280;-74
2023/04/30 02:27:06;;;;;;;10.70;9.27;;;13.50;99.90;;;;;;5054192;28;20172;-74
2023/04/30 02:29:32;;;;;;;10.70;9.60;;;13.40;99.90;;;;;;5054647;28;20211;-72
2023/04/30 02:31:58;;;;;;;9.70;8.27;;;13.50;99.90;;;;;;5069309;28;20175;-75
2023/04/30 02:34:23;;;;;;;9.70;8.80;;;13.60;99.90;;;;;;5054031;28;20706;-74
2023/04/30 02:36:49;;;;;;;10.03;9.13;;;13.70;99.90;;;;;;5069511;28;20516;-73
2023/04/30 02:39:14;;;;;;;9.73;8.43;;;13.80;99.90;;;;;;5053738;28;20594;-73
2023/04/30 02:41:40;;;;;;;9.67;8.77;;;13.80;99.90;;;;;;5054542;28;20177;-75
2023/04/30 02:44:06;;;;;;;9.97;8.97;;;13.80;99.90;;;;;;5069374;28;20676;-71
2023/04/30 02:46:31;;;;;;;9.33;8.43;;;13.80;99.90;;;;;;5053663;28;20607;-72
2023/04/30 02:48:57;;;;;;;12.50;11.30;;;13.80;99.90;;;;;;5052432;28;20166;-71
2023/04/30 02:51:22;;;;;;;12.27;10.50;;;13.60;99.90;;;;;;5036130;28;20177;-71
2023/04/30 02:53:48;;;;;;;13.77;12.37;;;13.30;99.90;;;;;;5033532;28;20701;-70
2023/04/30 02:56:14;;;;;;;10.60;9.50;;;13.30;99.90;;;;;;5033675;28;20731;-70
2023/04/30 02:58:40;;;;;;;11.60;9.47;;;13.40;99.90;;;;;;5034204;28;20164;-71
2023/04/30 03:01:05;;;;;;;11.40;10.20;;;13.50;99.90;;;;;;5044265;28;20173;-70
2023/04/30 03:03:32;;;;;;;10.27;9.27;;;13.60;99.90;;;;;;5053476;28;20193;-70
2023/04/30 03:05:58;;;;;;;11.70;9.50;;;13.70;99.90;;;;;;5068975;28;20198;-70
2023/04/30 03:08:27;;;;;;;11.90;10.60;;;13.70;99.90;;;;;;5050995;28;20406;-70
2023/04/30 03:10:52;;;;;;;10.43;9.33;;;13.70;99.90;;;;;;5031820;28;20468;-70
2023/04/30 03:13:18;;;;;;;13.53;10.47;;;13.60;99.90;;;;;;5031787;28;20416;-70
2023/04/30 03:15:44;;;;;;;12.20;10.90;;;13.60;99.90;;;;;;5032856;28;20667;-70
2023/04/30 03:18:10;;;;;;;9.97;8.80;;;13.60;99.90;;;;;;5031612;28;20180;-70
2023/04/30 03:20:36;;;;;;;10.47;9.47;;;13.60;99.90;;;;;;5032876;28;20196;-70
2023/04/30 03:23:01;;;;;;;10.20;9.20;;;13.60;99.90;;;;;;5032574;28;20762;-70
2023/04/30 03:25:27;;;;;;;9.43;8.47;;;13.50;99.90;;;;;;5031285;28;20185;-69
2023/04/30 03:27:52;;;;;;;11.57;10.37;;;13.40;99.90;;;;;;5033102;28;20186;-69
2023/04/30 03:30:18;;;;;;;11.90;9.37;;;13.40;99.90;;;;;;5033410;28;20173;-70
2023/04/30 03:32:44;;;;;;;10.07;8.87;;;13.40;99.90;;;;;;5033299;28;20538;-69
2023/04/30 03:35:10;;;;;;;10.33;8.57;;;13.40;99.90;;;;;;5031735;28;20685;-70
2023/04/30 03:37:35;;;;;;;9.67;8.77;;;13.40;99.90;;;;;;5035727;28;20430;-69
2023/04/30 03:40:01;;;;;;;9.43;8.53;;;13.50;99.90;;;;;;5052630;28;20174;-69
2023/04/30 03:42:26;;;;;;;12.13;9.07;;;13.60;99.90;;;;;;5052709;28;20173;-69
2023/04/30 03:44:52;;;;;;;12.03;8.47;;;13.50;99.90;;;;;;5052753;28;20285;-69
2023/04/30 03:47:17;;;;;;;10.10;9.10;;;13.60;99.90;;;;;;5053215;28;20184;-69
2023/04/30 03:49:43;;;;;;;10.03;8.80;;;13.60;99.90;;;;;;5052798;28;20201;-70
2023/04/30 03:52:08;;;;;;;9.80;8.80;;;13.50;99.90;;;;;;5067975;28;20164;-69
2023/04/30 03:54:34;;;;;;;10.53;9.43;;;13.50;99.90;;;;;;5052551;28;20169;-69
2023/04/30 03:57:03;;;;;;;9.17;8.27;;;13.50;99.90;;;;;;5068127;28;20215;-70
2023/04/30 03:59:32;;;;;;;11.93;10.40;;;13.40;99.90;;;;;;5053007;28;20248;-70
2023/04/30 04:01:58;;;;;;;12.20;9.53;;;13.40;99.90;;;;;;5052693;28;20489;-70
2023/04/30 04:04:24;;;;;;;10.30;9.10;;;13.40;99.90;;;;;;5052755;28;20523;-69
2023/04/30 04:06:49;;;;;;;10.83;9.03;;;13.30;99.90;;;;;;5052845;28;20954;-69
2023/04/30 04:09:15;;;;;;;11.10;9.83;;;13.30;99.90;;;;;;5068114;28;20536;-69
2023/04/30 04:11:40;;;;;;;11.13;9.03;;;13.20;99.90;;;;;;5053128;28;20553;-71
2023/04/30 04:14:06;;;;;;;9.87;8.87;;;13.20;99.90;;;;;;5068178;28;20659;-70
2023/04/30 04:16:32;;;;;;;11.60;10.50;;;13.10;99.90;;;;;;5052566;28;20705;-71
2023/04/30 04:18:57;;;;;;;10.87;9.77;;;13.10;99.90;;;;;;5052883;28;20173;-70
2023/04/30 04:21:23;;;;;;;11.67;9.73;;;13.00;99.90;;;;;;5052570;28;20592;-70
2023/04/30 04:23:49;;;;;;;11.73;10.47;;;13.00;99.90;;;;;;5052476;28;20279;-69
2023/04/30 04:26:15;;;;;;;11.50;10.37;;;13.00;99.90;;;;;;5050896;28;20187;-70
2023/04/30 04:28:41;;;;;;;9.27;8.30;;;13.10;99.90;;;;;;5052734;28;20408;-70
2023/04/30 04:31:06;;;;;;;10.90;9.80;;;13.10;99.90;;;;;;5052713;28;20438;-70
2023/04/30 04:33:32;;;;;;;14.77;9.87;;;13.10;99.90;;;;;;5052684;28;20171;-70
2023/04/30 04:35:58;;;;;;;12.23;9.60;;;13.00;99.90;;;;;;5052456;28;20193;-70
2023/04/30 04:38:24;;;;;;;11.07;9.80;;;13.10;99.90;;;;;;5067953;28;20681;-70
2023/04/30 04:40:51;;;;;;;11.90;9.73;;;13.00;99.90;;;;;;5053763;28;20544;-70
2023/04/30 04:43:17;;;;;;;10.00;8.73;;;13.10;99.90;;;;;;5056972;28;20817;-70
2023/04/30 04:45:42;;;;;;;8.13;7.30;;;13.10;99.90;;;;;;5056243;28;20449;-70
2023/04/30 04:48:08;;;;;;;10.73;9.60;;;13.20;99.90;;;;;;5053276;28;20548;-70
2023/04/30 04:50:33;;;;;;;9.80;8.80;;;13.20;99.90;;;;;;5036458;28;20200;-70
2023/04/30 04:52:59;;;;;;;9.27;8.37;;;13.20;99.90;;;;;;5035805;28;20162;-69
2023/04/30 04:55:24;;;;;;;9.67;7.97;;;13.10;99.90;;;;;;5035788;28;20265;-70
2023/04/30 04:57:50;;;;;;;9.57;8.30;;;13.00;99.90;;;;;;5034427;28;20168;-70
2023/04/30 05:00:16;;;;;;;10.73;9.30;;;12.90;99.90;;;;;;5034341;28;20229;-70
2023/04/30 05:02:42;;;;;;;10.07;9.00;;;12.90;99.90;;;;;;5035612;28;20210;-70
2023/04/30 05:05:08;;;;;;;9.73;8.43;;;12.90;99.90;;;;;;5034042;28;20461;-70
2023/04/30 05:07:34;;;;;;;9.10;8.30;;;13.00;99.90;;;;;;5053764;28;20172;-70
2023/04/30 05:09:59;;;;;;;10.20;9.17;;;13.10;99.90;;;;;;5070694;28;20416;-70
2023/04/30 05:12:25;;;;;;;8.60;7.80;;;13.20;99.90;;;;;;5056166;28;20158;-70
2023/04/30 05:14:50;;;;;;;9.90;9.00;;;13.20;99.90;;;;;;5049967;28;20174;-70
2023/04/30 05:17:16;;;;;;;9.20;8.30;;;13.20;99.90;;;;;;5035111;28;20177;-70
2023/04/30 05:19:41;;;;;;;10.87;8.73;;;13.20;99.90;;;;;;5035440;28;20172;-70
2023/04/30 05:22:07;;;;;;;8.80;7.80;;;13.30;99.90;;;;;;5033960;28;20180;-70
2023/04/30 05:24:33;;;;;;;9.10;8.20;;;13.40;99.90;;;;;;5035505;28;20615;-70
2023/04/30 05:26:58;;;;;;;10.20;9.20;;;13.40;99.90;;;;;;5035026;28;20671;-70
2023/04/30 05:29:24;;;;;;;10.00;8.50;;;13.50;99.90;;;;;;5035429;28;20209;-70
2023/04/30 05:31:49;;;;;;;7.93;7.23;;;13.40;99.90;;;;;;5033993;28;20671;-70
2023/04/30 05:34:15;;;;;;;12.00;10.50;;;13.50;99.90;;;;;;5035278;28;20174;-70
2023/04/30 05:36:40;;;;;;;9.73;8.63;;;13.50;99.90;;;;;;5034627;28;20194;-70
2023/04/30 05:39:06;;;;;;;10.47;9.40;;;13.60;99.90;;;;;;5052164;28;20546;-70
2023/04/30 05:41:31;;;;;;;11.90;10.70;;;13.70;99.90;;;;;;5054489;28;20172;-70
2023/04/30 05:43:57;;;;;;;11.27;10.23;;;13.50;99.90;;;;;;5054800;28;20262;-70
2023/04/30 05:46:22;;;;;;;11.63;10.53;;;13.40;99.90;;;;;;5054758;28;20656;-70
2023/04/30 05:48:48;;;;;;;11.40;10.30;;;13.60;99.90;;;;;;5053556;28;20257;-70
2023/04/30 05:51:14;;;;;;;11.47;10.27;;;13.60;99.90;;;;;;5053832;28;20307;-70
2023/04/30 05:53:40;;;;;;;11.97;10.83;;;13.60;99.90;;;;;;5053028;28;20167;-71
2023/04/30 05:56:06;;;;;;;12.00;10.80;;;13.40;99.90;;;;;;5054212;28;20869;-71
2023/04/30 05:58:31;;;;;;;12.53;11.43;;;13.40;99.90;;;;;;5054522;28;20258;-70
2023/04/30 06:00:58;;;;;;;11.97;10.77;;;13.20;99.90;;;;;;5054379;28;20693;-71
2023/04/30 06:03:23;;;;;;;15.97;12.30;;;13.30;99.90;;;;;;5054676;28;20194;-70
2023/04/30 06:05:49;;;;;;;13.30;10.90;;;13.50;99.90;;;;;;5054470;28;20435;-71
2023/04/30 06:08:14;;;;;;;12.27;11.13;;;13.60;99.90;;;;;;5054297;28;20242;-71
2023/04/30 06:10:40;;;;;;;12.27;10.97;;;13.80;99.90;;;;;;5054037;28;20526;-71
2023/04/30 06:13:06;;;;;;;12.13;10.93;;;13.90;99.90;;;;;;5052963;28;20170;-70
2023/04/30 06:15:32;;;;;;;11.00;9.90;;;13.90;99.90;;;;;;5054345;28;20454;-71
2023/04/30 06:17:58;;;;;;;12.00;10.90;;;14.00;99.90;;;;;;5054248;28;20200;-71
2023/04/30 06:20:23;;;;;;;12.33;10.90;;;14.10;99.90;;;;;;5054185;28;20178;-71
2023/04/30 06:22:49;;;;;;;13.43;12.10;;;14.00;99.90;;;;;;5054066;28;20169;-71
2023/04/30 06:25:14;;;;;;;11.37;9.97;;;13.50;99.90;;;;;;5053776;28;20724;-70
2023/04/30 06:27:40;;;;;;;11.10;10.10;;;13.50;99.90;;;;;;5054148;28;20549;-70
2023/04/30 06:30:06;;;;;;;11.47;10.47;;;13.80;99.90;;;;;;5052664;28;20177;-70
2023/04/30 06:32:32;;;;;;;11.13;10.03;;;13.80;99.90;;;;;;5054399;28;20593;-69
2023/04/30 06:34:57;;;;;;;12.13;10.90;;;13.80;99.90;;;;;;5053638;28;20416;-70
2023/04/30 06:37:23;;;;;;;10.87;9.83;;;13.70;99.90;;;;;;5053339;28;20188;-71
2023/04/30 06:39:49;;;;;;;12.07;10.80;;;13.80;99.90;;;;;;5053666;28;20175;-71
2023/04/30 06:42:14;;;;;;;10.60;9.60;;;13.80;99.90;;;;;;5053146;28;20198;-70
2023/04/30 06:44:40;;;;;;;10.70;9.70;;;14.00;99.90;;;;;;5053904;28;20204;-71
2023/04/30 06:47:05;;;;;;;10.90;9.67;;;14.10;99.90;;;;;;5074974;23;20234;-68
2023/04/30 06:49:31;;;;;;;11.30;9.90;;;14.00;99.90;;;;;;5053671;28;20204;-70
2023/04/30 06:51:57;;;;;;;10.87;9.10;;;14.20;99.90;;;;;;5053606;28;20531;-70
2023/04/30 06:54:25;;;;;;;10.43;9.33;;;14.30;99.90;;;;;;5053621;28;20173;-70
2023/04/30 06:56:51;;;;;;;10.10;9.20;;;14.30;99.90;;;;;;5052908;28;20440;-71
2023/04/30 06:59:16;;;;;;;9.60;8.63;;;14.50;99.90;;;;;;5053354;28;20397;-70
2023/04/30 07:01:42;;;;;;;10.03;9.07;;;14.50;99.90;;;;;;5053539;28;20400;-71
2023/04/30 07:04:08;;;;;;;10.73;9.83;;;14.50;99.90;;;;;;5052884;28;20285;-70
2023/04/30 07:06:33;;;;;;;11.63;10.23;;;14.60;99.90;;;;;;5053130;28;20198;-71
2023/04/30 07:08:59;;;;;;;10.60;9.70;;;14.50;99.90;;;;;;5052863;28;20225;-70
2023/04/30 07:11:24;;;;;;;11.30;10.20;;;14.40;99.90;;;;;;5051170;28;20178;-70
2023/04/30 07:13:50;;;;;;;11.30;10.20;;;14.40;99.90;;;;;;5047689;28;20242;-69
2023/04/30 07:16:16;;;;;;;10.23;9.33;;;14.50;99.90;;;;;;5033353;28;20245;-70
2023/04/30 07:18:42;;;;;;;11.10;10.00;;;14.30;99.90;;;;;;5033373;28;20171;-70
2023/04/30 07:21:07;;;;;;;9.90;8.90;;;14.20;99.90;;;;;;5033061;28;20502;-69
2023/04/30 07:23:33;;;;;;;11.13;10.13;;;14.50;99.90;;;;;;5032864;28;20506;-70
2023/04/30 07:25:59;;;;;;;9.97;9.03;;;14.40;99.90;;;;;;5032780;28;20196;-70
2023/04/30 07:28:25;;;;;;;13.50;9.77;;;14.20;99.90;;;;;;5033606;28;20399;-70
2023/04/30 07:30:51;;;;;;;10.40;9.47;;;14.40;99.90;;;;;;5033284;28;20184;-70
2023/04/30 07:33:17;;;;;;;11.03;10.00;;;14.40;99.90;;;;;;5033097;28;20197;-70
2023/04/30 07:35:43;;;;;;;12.00;10.37;;;14.10;99.90;;;;;;5032758;28;20518;-70
2023/04/30 07:38:08;;;;;;;10.77;9.50;;;14.00;99.90;;;;;;5043836;28;20177;-70
2023/04/30 07:40:34;;;;;;;9.30;8.40;;;14.10;99.90;;;;;;5052273;28;20171;-70
2023/04/30 07:42:59;;;;;;;10.50;9.40;;;14.40;99.90;;;;;;5052793;28;20172;-70
2023/04/30 07:45:25;;;;;;;10.37;9.27;;;14.70;99.90;;;;;;5052525;28;20256;-70
2023/04/30 07:47:50;;;;;;;9.43;8.43;;;14.70;99.90;;;;;;5067996;28;20197;-70
2023/04/30 07:50:17;;;;;;;9.93;9.03;;;14.90;99.90;;;;;;5052733;28;20174;-70
2023/04/30 07:52:42;;;;;;;9.63;8.63;;;14.90;99.90;;;;;;5052608;28;20184;-70
2023/04/30 07:55:09;;;;;;;9.23;8.33;;;15.00;99.90;;;;;;5052165;28;20399;-70
2023/04/30 07:57:34;;;;;;;10.37;8.83;;;15.10;99.90;;;;;;5052598;28;20169;-70
2023/04/30 08:00:00;;;;;;;8.93;8.17;;;15.00;99.90;;;;;;5052493;28;20786;-70
2023/04/30 08:02:26;;;;;;;8.20;7.47;;;15.00;99.90;;;;;;5052470;28;20203;-70
2023/04/30 08:04:51;;;;;;;8.50;7.80;;;14.90;99.90;;;;;;5052779;28;20192;-70
2023/04/30 08:07:17;;;;;;;8.57;7.60;;;14.90;99.90;;;;;;5067527;28;20197;-70
2023/04/30 08:09:42;;;;;;;8.30;7.50;;;15.20;99.90;;;;;;5052396;28;20170;-70
2023/04/30 08:12:09;;;;;;;7.50;6.73;;;15.20;99.90;;;;;;5052466;28;20163;-70
2023/04/30 08:14:34;;;;;;;7.57;6.93;;;15.20;99.90;;;;;;5053120;28;20170;-70
2023/04/30 08:17:01;;;;;;;7.50;6.80;;;15.00;99.90;;;;;;5056122;28;20430;-70
2023/04/30 08:19:27;;;;;;;8.23;7.40;;;15.00;99.90;;;;;;5056623;28;20248;-70
2023/04/30 08:21:53;;;;;;;8.00;7.20;;;15.00;99.90;;;;;;5056311;28;20591;-70
2023/04/30 08:24:18;;;;;;;6.87;6.27;;;15.20;99.90;;;;;;5056090;28;20201;-70
2023/04/30 08:26:44;;;;;;;10.53;6.73;;;15.40;99.90;;;;;;5055820;28;20728;-71
2023/04/30 08:29:09;;;;;;;7.20;5.40;;;15.60;99.90;;;;;;5056563;28;20171;-70
2023/04/30 08:31:36;;;;;;;6.33;5.83;;;15.90;99.90;;;;;;5056132;28;20213;-71
2023/04/30 08:34:01;;;;;;;7.00;6.40;;;15.90;99.90;;;;;;5056145;28;20181;-70
2023/04/30 08:36:27;;;;;;;6.80;6.10;;;15.90;99.90;;;;;;5056158;28;20515;-70
2023/04/30 08:38:52;;;;;;;6.80;6.20;;;16.00;99.90;;;;;;5055786;28;20540;-71
2023/04/30 08:41:22;;;;;;;7.20;6.60;;;16.10;99.90;;;;;;5055555;28;20174;-71
2023/04/30 08:43:52;;;;;;;5.83;5.33;;;16.30;99.90;;;;;;5056065;28;20253;-71
2023/04/30 08:46:19;;;;;;;4.97;4.43;;;16.40;99.90;;;;;;5055714;28;20444;-71
2023/04/30 08:48:47;;;;;;;5.20;4.70;;;16.60;99.90;;;;;;5051367;28;20401;-71
2023/04/30 08:51:13;;;;;;;5.23;4.17;;;16.30;99.90;;;;;;5035077;28;20421;-71
2023/04/30 08:53:41;;;;;;;6.67;4.47;;;16.40;99.90;;;;;;5036579;28;20406;-71
2023/04/30 08:56:09;;;;;;;3.90;3.53;;;16.60;99.90;;;;;;5036589;28;20880;-70
2023/04/30 08:58:36;;;;;;;4.77;3.73;;;16.60;99.90;;;;;;5036853;28;20414;-70
2023/04/30 09:01:02;;;;;;;4.20;3.90;;;16.70;99.90;;;;;;5036494;28;20398;-70
2023/04/30 09:03:29;;;;;;;4.20;3.90;;;16.60;99.90;;;;;;5035724;28;20473;-70
2023/04/30 09:05:55;;;;;;;4.50;4.10;;;16.40;99.90;;;;;;5051934;28;20456;-71
2023/04/30 09:08:50;;;;;;;4.63;4.23;;;16.50;99.90;;;;;;5055153;28;20409;-70
2023/04/30 09:11:29;;;;;;;4.90;4.50;;;16.50;99.90;;;;;;5058520;28;20452;-70
2023/04/30 09:13:59;;;;;;;5.33;4.87;;;16.60;99.90;;;;;;5035184;28;20412;-70
2023/04/30 09:16:27;;;;;;;4.73;4.23;;;16.70;99.90;;;;;;5035329;28;20890;-71
2023/04/30 09:18:52;;;;;;;4.60;4.20;;;16.70;99.90;;;;;;5035483;28;20413;-70
2023/04/30 09:21:32;;;;;;;5.90;5.00;;;17.10;99.90;;;;;;5034283;28;20402;-71
2023/04/30 09:24:00;;;;;;;4.70;4.30;;;17.50;99.90;;;;;;5034826;28;20294;-70
2023/04/30 09:26:37;;;;;;;4.83;4.43;;;17.50;99.40;;;;;;5034425;28;20430;-70
2023/04/30 09:29:06;;;;;;;4.70;4.30;;;17.20;99.30;;;;;;5035267;28;20386;-70
2023/04/30 09:31:36;;;;;;;4.57;4.17;;;17.00;99.50;;;;;;5033816;28;20415;-71
2023/04/30 09:34:03;;;;;;;3.93;3.60;;;17.20;98.60;;;;;;5036340;28;20383;-69
2023/04/30 09:36:30;;;;;;;3.50;3.20;;;17.10;98.20;;;;;;5034958;28;20433;-70
2023/04/30 09:38:56;;;;;;;5.80;3.80;;;17.00;98.50;;;;;;5051416;28;20417;-71
2023/04/30 09:41:26;;;;;;;4.70;3.60;;;16.70;98.80;;;;;;5069967;28;20439;-71
2023/04/30 09:43:53;;;;;;;4.00;3.50;;;16.80;98.80;;;;;;5055811;28;20224;-70
2023/04/30 09:46:20;;;;;;;3.57;3.27;;;17.00;97.90;;;;;;5054507;28;20505;-70
2023/04/30 09:48:54;;;;;;;4.07;3.73;;;17.50;97.70;;;;;;5054941;28;20878;-71
2023/04/30 09:51:20;;;;;;;4.27;3.80;;;17.60;97.30;;;;;;5054797;28;20423;-72
2023/04/30 09:53:46;;;;;;;3.70;3.40;;;17.70;97.10;;;;;;5054608;28;20401;-71
2023/04/30 09:56:18;;;;;;;4.03;3.63;;;17.80;97.40;;;;;;5054204;28;20190;-71
2023/04/30 09:58:53;;;;;;;5.87;3.70;;;17.60;96.50;;;;;;5054718;28;20394;-71
2023/04/30 10:01:20;;;;;;;4.10;3.10;;;17.60;96.40;;;;;;5054939;28;20392;-70
2023/04/30 10:03:47;;;;;;;3.70;3.40;;;17.80;96.40;;;;;;5054325;28;20449;-70
2023/04/30 10:06:14;;;;;;;3.60;3.30;;;18.00;96.20;;;;;;5054193;28;20417;-71
2023/04/30 10:08:41;;;;;;;3.53;3.23;;;18.00;95.90;;;;;;5053908;28;20440;-71
2023/04/30 10:11:08;;;;;;;3.50;3.20;;;17.70;95.50;;;;;;5054159;28;20441;-70
2023/04/30 10:13:40;;;;;;;3.33;3.03;;;17.80;95.90;;;;;;5054054;28;20409;-71
2023/04/30 10:16:25;;;;;;;3.30;3.00;;;18.00;95.50;;;;;;5054213;28;20429;-71
2023/04/30 10:18:52;;;;;;;3.23;2.93;;;18.10;95.00;;;;;;5054621;28;20443;-71
2023/04/30 10:21:21;;;;;;;5.10;3.10;;;18.30;94.50;;;;;;5053959;28;20495;-70
2023/04/30 10:23:47;;;;;;;3.00;2.80;;;18.00;94.30;;;;;;5053784;28;20445;-70
2023/04/30 10:26:15;;;;;;;2.83;2.63;;;17.80;94.60;;;;;;5053796;28;20425;-71
2023/04/30 10:28:41;;;;;;;2.90;2.63;;;18.00;94.30;;;;;;5054162;28;20410;-71
2023/04/30 10:31:09;;;;;;;2.60;2.40;;;18.30;94.10;;;;;;5054075;28;20393;-70
2023/04/30 10:33:48;;;;;;;3.60;3.30;;;18.20;94.20;;;;;;5068926;28;20460;-71
2023/04/30 10:36:21;;;;;;;3.37;3.07;;;18.30;94.30;;;;;;5053576;28;20444;-71
2023/04/30 10:38:47;;;;;;;5.43;4.00;;;18.20;93.90;;;;;;5052642;28;20405;-70
2023/04/30 10:41:13;;;;;;;3.60;3.30;;;18.20;93.80;;;;;;5053522;28;20408;-70
2023/04/30 10:43:40;;;;;;;4.60;2.90;;;17.80;94.20;;;;;;5053620;28;20251;-71
2023/04/30 10:46:07;;;;;;;3.33;3.03;;;17.90;94.30;;;;;;5053662;28;20449;-70
2023/04/30 10:48:34;;;;;;;4.43;3.43;;;17.90;94.60;;;;;;5042389;28;20901;-70
2023/04/30 10:51:00;;;;;;;4.63;4.00;;;18.00;95.10;;;;;;5033817;28;20410;-70
2023/04/30 10:53:30;;;;;;;4.30;3.77;;;18.00;94.70;;;;;;5033326;28;20921;-71
2023/04/30 10:56:07;;;;;;;3.47;3.10;;;17.80;94.80;;;;;;5031963;28;20937;-70
2023/04/30 10:58:38;;;;;;;4.63;4.20;;;17.80;94.90;;;;;;5033722;28;20398;-70
2023/04/30 11:01:14;;;;;;;4.03;3.70;;;17.90;94.70;;;;;;5033295;28;20398;-70
2023/04/30 11:03:41;;;;;;;4.33;4.03;;;17.90;94.90;;;;;;5033739;28;20811;-71
2023/04/30 11:06:16;;;;;;;5.00;4.50;;;17.90;95.20;;;;;;5037184;28;20834;-70
2023/04/30 11:08:44;;;;;;;4.17;3.87;;;18.10;95.10;;;;;;5047698;28;20404;-71
2023/04/30 11:11:10;;;;;;;4.37;3.97;;;18.10;94.20;;;;;;5053057;28;20416;-70
2023/04/30 11:13:47;;;;;;;4.47;4.07;;;18.10;94.50;;;;;;5053148;28;20406;-71
2023/04/30 11:16:15;;;;;;;9.87;4.33;;;18.60;94.70;;;;;;5053081;28;20428;-70
2023/04/30 11:18:46;;;;;;;4.13;3.83;;;18.70;94.00;;;;;;5053057;28;20936;-70
2023/04/30 11:21:12;;;;;;;4.37;3.97;;;18.90;94.00;;;;;;5053221;28;20873;-71
2023/04/30 11:23:43;;;;;;;5.17;4.70;;;18.80;93.10;;;;;;5052585;28;20457;-71
2023/04/30 11:26:09;;;;;;;4.10;3.70;;;18.30;93.30;;;;;;5052476;28;20765;-71
2023/04/30 11:28:37;;;;;;;5.40;3.67;;;18.30;93.70;;;;;;5052884;28;20496;-71
2023/04/30 11:31:03;;;;;;;3.83;3.53;;;18.30;93.80;;;;;;5052558;28;20401;-70
2023/04/30 11:33:30;;;;;;;4.03;3.73;;;18.40;93.60;;;;;;5052902;28;20499;-70
2023/04/30 11:35:58;;;;;;;4.60;3.40;;;18.20;93.50;;;;;;5052700;28;20456;-71
2023/04/30 11:38:27;;;;;;;4.67;4.13;;;17.90;93.60;;;;;;5051323;28;20421;-70
2023/04/30 11:40:54;;;;;;;6.20;3.80;;;17.80;94.90;;;;;;5053414;28;20886;-70
2023/04/30 11:43:21;;;;;;;3.83;3.53;;;18.10;94.30;;;;;;5052936;28;20866;-70
2023/04/30 11:46:00;;;;;;;5.00;4.50;;;18.40;94.60;;;;;;5052710;28;20496;-70
2023/04/30 11:48:31;;;;;;;4.53;4.13;;;18.10;94.20;;;;;;5052776;28;20405;-70
2023/04/30 11:50:56;;;;;;;4.77;3.80;;;18.20;94.30;;;;;;5055782;28;20516;-69
2023/04/30 11:53:27;;;;;;;4.57;4.10;;;18.10;93.80;;;;;;5056408;28;20460;-70
2023/04/30 11:55:54;;;;;;;4.33;3.93;;;18.00;93.70;;;;;;5056945;28;20197;-70
2023/04/30 11:58:19;;;;;;;4.00;3.60;;;18.20;93.70;;;;;;5056689;28;20397;-70
2023/04/30 12:00:45;;;;;;;4.13;3.73;;;18.40;93.90;;;;;;5056708;28;20889;-70
2023/04/30 12:03:13;;;;;;;3.67;3.33;;;18.40;93.70;;;;;;5056731;28;20180;-70
2023/04/30 12:05:39;;;;;;;3.63;3.33;;;18.40;93.40;;;;;;5056729;28;20178;-71
2023/04/30 12:08:08;;;;;;;3.13;2.93;;;18.60;92.50;;;;;;5056082;28;20408;-71
2023/04/30 12:10:34;;;;;;;3.60;3.30;;;18.50;92.90;;;;;;5056635;28;20508;-71
2023/04/30 12:13:00;;;;;;;2.97;2.77;;;18.70;93.20;;;;;;5056412;28;20488;-70
2023/04/30 12:15:27;;;;;;;3.40;3.10;;;19.00;92.60;;;;;;5056604;28;20975;-70
2023/04/30 12:17:55;;;;;;;3.23;3.03;;;19.20;92.80;;;;;;5056601;28;20413;-70
2023/04/30 12:20:22;;;;;;;3.60;3.17;;;19.30;92.50;;;;;;5056321;28;20751;-70
2023/04/30 12:22:48;;;;;;;3.20;3.00;;;19.10;92.00;;;;;;5056136;28;20405;-70
2023/04/30 12:25:16;;;;;;;3.80;3.10;;;19.20;91.40;;;;;;5056230;28;20452;-71
2023/04/30 12:27:45;;;;;;;4.13;3.30;;;19.50;91.20;;;;;;5056574;28;20446;-70
2023/04/30 12:30:12;;;;;;;3.83;3.53;;;19.60;91.80;;;;;;5056165;28;20400;-70
2023/04/30 12:32:42;;;;;;;4.27;3.97;;;19.00;91.50;;;;;;5056321;28;20492;-70
2023/04/30 12:35:14;;;;;;;3.50;3.20;;;18.50;92.20;;;;;;5056046;28;20428;-70
2023/04/30 12:37:51;;;;;;;3.53;3.20;;;18.30;92.70;;;;;;5055634;28;20389;-70
2023/04/30 12:40:25;;;;;;;4.20;3.90;;;17.90;92.90;;;;;;5039468;28;20456;-70
2023/04/30 12:42:58;;;;;;;3.20;2.90;;;17.80;93.00;;;;;;5034801;28;20385;-70